Preflight/Weather

The current temperature at Deer Valley airport is 41°C  or 106°F

Deer Valley Metar:

KDVT 042153Z 19010G17KT 10SM CLR 41/12 A2985 RMK AO2 SLP077 T04110117

Terminal Area Forecast for Phoenix:

TAF AMD KPHX 042156Z 0422/0524 27011G18KT P6SM SKC FM050100 27008KT P6SM SKC FM051100 10006KT P6SM SKC FM051800 26009KT P6SM SKC